• Join FlightAware (Why Join?)
  • Login
  • US Flag 
05:01AM EDT


 

Airport Tracker/Info


-or-


 

Live Flight TrackerFlight Track Log ✈ RPA3247 ✈ 02-May-2013 ✈ KALB - KDCA

Flight Track Log - Related Links

Times and Time Zones

All times are in EDT time to prevent confusion due to time zone crossing. See the RPA3247 flight status page for this flight to view local times or setup timezone preferences in your user account.

Time Position Orientation Groundspeed Altitude Reporting Facility
EDT Latitude Longitude Course Direction KTS MPH feet Rate Location/Type
05:29PM 42.7714 -73.8092 135° Southeast 153 176 1,300  Level Boston Center
05:30PM 42.8150 -73.8356 336° Northwest 212 244 2,700 1,980 Climbing Boston Center
05:31PM 42.5323 -73.9945 171° South  Level Estimated
05:31PM 42.8869 -73.9022 326° Northwest 241 277 5,700  Level Boston Center
05:32PM 42.4816 -73.8997 126° Southeast  Level FlightAware Approximate
05:32PM 42.9447 -73.9575 325° Northwest 269 310 8,200  Level Boston Center
05:33PM 42.4103 -73.9656 170° South  Level Estimated
05:33PM 42.9828 -74.0606 297° West 275 316 10,700  Level Boston Center
05:34PM 42.3491 -73.8831 135° Southeast  Level FlightAware Approximate
05:34PM 42.9689 -74.1681 260° West 292 336 12,100  Level Boston Center
05:35PM 42.8689 -74.1653 179° South 239 275 14,500 2,040 Climbing Boston Center
05:36PM 42.7861 -74.1233 160° South 292 336 16,200 1,680 Climbing Boston Center
05:37PM 42.6825 -74.0725 160° South 346 398 17,900 1,560 Climbing Boston Center
05:38PM 42.5853 -74.0192 158° South 365 420 19,400 1,380 Climbing Boston Center
05:39PM 42.4861 -73.9689 159° South 376 433 20,700 1,320 Climbing Boston Center
05:40PM 42.3806 -73.9128 159° South 389 448 22,100 1,320 Climbing Boston Center
05:41PM 42.2728 -73.8597 160° South 399 459 23,400 1,200 Climbing Boston Center
05:42PM 42.1650 -73.8069 160° South 411 473 24,600 1,080 Climbing Boston Center
05:43PM 42.0481 -73.8269 187° South 406 467 25,600 1,020 Climbing Boston Center
05:44PM 41.9347 -73.8800 199° South 412 474 26,700 1,080 Climbing Boston Center
05:45PM 41.8194 -73.9361 200° South 420 483 27,800 360 Climbing Boston Center
05:47PM 41.5764 -74.0433 198° South 438 504 28,000 60 Climbing New York Center
05:48PM 41.4583 -74.0983 199° South 438 504 28,000  Level New York Center
05:49PM 41.3422 -74.1533 200° South 438 504 28,000  Level New York Center
05:50PM 41.2094 -74.2047 196° South 438 504 28,000  Level New York Center
05:51PM 41.0956 -74.2594 200° South 448 516 28,000  Level New York Center
05:52PM 40.9814 -74.3139 200° South 448 516 28,000  Level New York Center
05:53PM 40.8653 -74.3656 199° South 448 516 28,000  Level New York Center
05:54PM 40.7608 -74.4450 210° Southwest 431 496 28,000  Level New York Center
05:55PM 40.6881 -74.5642 231° Southwest 422 486 28,000 -300 Level New York Center
05:56PM 40.6175 -74.6861 233° Southwest 422 486 27,500 -780 Descending New York Center
05:57PM 40.5406 -74.8019 229° Southwest 427 491 26,500 -1,020 Descending New York Center
05:58PM 40.4619 -74.9117 227° Southwest 427 491 25,500 -1,020 Descending New York Center
05:59PM 40.3850 -75.0244 228° Southwest 422 486 24,500 -1,020 Descending New York Center
06:00PM 40.3058 -75.1339 227° Southwest 422 486 23,500 -1,020 Descending New York Center
06:01PM 40.2331 -75.2406 228° Southwest 415 478 22,500 -780 Descending New York Center
06:02PM 40.1561 -75.3472 227° Southwest 409 471 22,000 -300 Descending New York Center
06:03PM 40.0811 -75.4481 226° Southwest 404 465 22,000  Level New York Center
06:04PM 40.0150 -75.5439 228° Southwest 404 465 22,000  Level New York Center
06:05PM 39.9397 -75.6469 226° Southwest 404 465 22,000  Level New York Center
06:06PM 39.8767 -75.7589 234° Southwest 399 459 22,000  Level New York Center
06:07PM 39.8133 -75.8761 235° Southwest 399 459 22,000 -840 Level New York Center
06:08PM 39.7497 -75.9956 235° Southwest 399 459 20,400 -1,860 Descending New York Center
06:09PM 39.6947 -76.1050 237° Southwest 394 453 18,400 -1,980 Descending New York Center
06:10PM 39.6311 -76.2214 235° Southwest 374 430 16,600 -2,100 Descending New York Center
06:11PM 39.6167 -76.2500 237° Southwest 365 420 15,700 -2,220 Descending Potomac TRACON
06:11PM 39.5500 -76.3333 224° Southwest 355 409 14,000 -1,800 Descending Potomac TRACON
06:13PM 39.4667 -76.4167 218° Southwest 345 397 12,100 -960 Descending Potomac TRACON
06:14PM 39.3833 -76.4833 212° Southwest 340 391 12,000 -60 Descending Potomac TRACON
06:15PM 39.3000 -76.5500 212° Southwest 340 391 12,000  Level Potomac TRACON
06:16PM 39.2333 -76.6167 218° Southwest 323 372 12,000 -900 Level Potomac TRACON
06:17PM 39.1500 -76.6833 212° Southwest 308 354 10,300 -1,020 Descending Potomac TRACON
06:18PM 39.1000 -76.7500 226° Southwest 290 334 10,000 -540 Descending Potomac TRACON
06:19PM 39.0333 -76.8167 218° Southwest 250 288 9,200 -960 Descending Potomac TRACON
06:20PM 38.9833 -76.8833 226° Southwest 242 278 8,000 -1,260 Descending Potomac TRACON
06:21PM 38.9667 -76.9667 256° West 242 278 6,700 -1,080 Descending Potomac TRACON
06:22PM 38.9833 -77.0333 288° West 242 278 6,000 -540 Descending Potomac TRACON
06:23PM 39.0333 -77.0833 322° Northwest 189 217 5,700 -720 Descending Potomac TRACON
06:24PM 39.0500 -77.1333 293° West 193 222 4,600 -1,200 Descending Potomac TRACON
06:25PM 39.0333 -77.1833 247° West 185 213 3,500 -840 Descending Potomac TRACON
06:26PM 39.0000 -77.1667 159° South 170 196 3,000 -660 Descending Potomac TRACON
06:27PM 38.9500 -77.1333 153° Southeast 171 197 2,200 -840 Descending Potomac TRACON
06:28PM 38.9167 -77.1000 142° Southeast 161 185 1,400 -840 Descending Potomac TRACON